Time;durP1;ratioP1;P1;durP2;ratioP2;P2;SDS_P1;SDS_P2;PMS_P1;PMS_P2;Temp;Humidity;BMP_temperature;BMP_pressure;BME280_temperature;BME280_humidity;BME280_pressure;Samples;Min_cycle;Max_cycle;Signal;HPM_P1;HPM_P2
2021/09/19 00:00:08;;;;;;;7.43;4.63;;;;;;;19.93;78.75;100632.72;5054238;28;20085;-64
2021/09/19 00:02:35;;;;;;;7.55;4.80;;;;;;;19.95;76.71;100628.38;5042669;28;20049;-65
2021/09/19 00:05:05;;;;;;;8.07;4.50;;;;;;;19.81;75.76;100619.78;5033890;28;20061;-63
2021/09/19 00:07:32;;;;;;;6.55;4.50;;;;;;;19.67;76.54;100630.75;5033869;28;20045;-65
2021/09/19 00:10:00;;;;;;;8.13;4.35;;;;;;;19.31;79.81;100633.38;5053989;28;20482;-65
2021/09/19 00:12:27;;;;;;;7.60;4.40;;;;;;;18.80;81.32;100627.25;5054775;28;20072;-64
2021/09/19 00:14:54;;;;;;;7.82;4.90;;;;;;;18.72;82.13;100622.72;5061129;28;20053;-64
2021/09/19 00:17:22;;;;;;;7.00;4.82;;;;;;;18.67;81.97;100625.84;5048089;28;20049;-64
2021/09/19 00:19:49;;;;;;;7.53;4.97;;;;;;;18.60;84.22;100617.31;5056619;28;20056;-64
2021/09/19 00:22:16;;;;;;;8.68;5.03;;;;;;;18.53;83.84;100612.38;5053668;28;20053;-63
2021/09/19 00:24:44;;;;;;;8.38;4.68;;;;;;;18.88;83.95;100612.28;5043643;28;20052;-64
2021/09/19 00:27:11;;;;;;;6.50;4.25;;;;;;;18.86;82.24;100614.63;5043828;28;20046;-64
2021/09/19 00:29:38;;;;;;;9.38;4.95;;;;;;;19.05;82.81;100612.59;5036391;28;20057;-64
2021/09/19 00:32:06;;;;;;;7.20;4.75;;;;;;;18.55;84.01;100612.03;5045224;28;20053;-65
2021/09/19 00:34:33;;;;;;;7.25;4.35;;;;;;;18.76;83.46;100609.63;5055303;28;20052;-63
2021/09/19 00:37:01;;;;;;;6.72;4.45;;;;;;;18.89;82.09;100611.09;5056389;28;20088;-64
2021/09/19 00:39:29;;;;;;;7.10;4.65;;;;;;;18.63;84.44;100605.41;5048111;28;20057;-62
2021/09/19 00:41:57;;;;;;;11.88;4.88;;;;;;;18.56;84.79;100608.88;5057317;28;20049;-63
2021/09/19 00:44:26;;;;;;;6.28;4.20;;;;;;;18.67;83.41;100597.94;5042268;28;20053;-63
2021/09/19 00:46:54;;;;;;;8.48;4.68;;;;;;;18.65;84.97;100601.09;5039888;28;20064;-63
2021/09/19 00:49:23;;;;;;;6.70;4.38;;;;;;;18.98;82.67;100604.09;5055024;28;20057;-64
2021/09/19 00:51:52;;;;;;;7.78;4.63;;;;;;;18.89;83.32;100597.13;5038929;28;20049;-63
2021/09/19 00:54:21;;;;;;;7.05;4.63;;;;;;;18.97;81.91;100607.22;5046164;28;20040;-63
2021/09/19 00:56:55;;;;;;;7.18;4.70;;;;;;;18.78;83.07;100599.72;5047248;28;20060;-63
2021/09/19 00:59:23;;;;;;;8.60;4.82;;;;;;;18.78;83.33;100601.69;5066969;28;20062;-63
2021/09/19 01:01:51;;;;;;;10.75;4.35;;;;;;;19.19;81.38;100597.25;5053685;28;20068;-63
2021/09/19 01:04:20;;;;;;;6.78;4.57;;;;;;;18.93;83.60;100592.41;5056783;28;20045;-63
2021/09/19 01:06:48;;;;;;;6.90;4.68;;;;;;;19.11;81.54;100593.50;5056793;28;20061;-63
2021/09/19 01:09:15;;;;;;;6.95;4.72;;;;;;;19.08;80.15;100592.28;5057070;28;20052;-62
2021/09/19 01:11:43;;;;;;;7.57;5.25;;;;;;;18.80;83.30;100593.78;5050224;28;20484;-63
2021/09/19 01:14:14;;;;;;;9.18;5.20;;;;;;;18.84;82.99;100587.09;5058804;28;20491;-63
2021/09/19 01:16:43;;;;;;;9.63;5.13;;;;;;;18.77;82.79;100592.53;5047722;28;20050;-63
2021/09/19 01:19:16;;;;;;;7.30;5.10;;;;;;;18.79;83.22;100590.16;5037691;28;20493;-63
2021/09/19 01:21:43;;;;;;;8.18;5.20;;;;;;;18.71;83.05;100590.41;5041323;28;20552;-62
2021/09/19 01:24:11;;;;;;;8.35;5.47;;;;;;;18.83;83.35;100596.63;5051839;28;20049;-62
2021/09/19 01:26:38;;;;;;;9.27;5.43;;;;;;;19.08;81.48;100585.88;5046432;28;20053;-64
2021/09/19 01:29:06;;;;;;;8.48;5.00;;;;;;;18.68;84.38;100582.78;5044515;28;20055;-62
2021/09/19 01:31:33;;;;;;;9.18;5.72;;;;;;;18.80;84.26;100588.19;5043914;28;20046;-63
2021/09/19 01:34:03;;;;;;;10.23;6.13;;;;;;;18.56;85.89;100586.56;5043605;28;20053;-63
2021/09/19 01:36:32;;;;;;;7.97;5.90;;;;;;;18.90;84.64;100588.38;5038369;28;20037;-63
2021/09/19 01:39:00;;;;;;;10.77;6.00;;;;;;;19.40;81.96;100578.88;5056176;28;20053;-63
2021/09/19 01:41:28;;;;;;;8.57;5.78;;;;;;;19.11;81.94;100582.34;5051152;28;20042;-65
2021/09/19 01:43:55;;;;;;;11.85;6.43;;;;;;;18.44;85.92;100575.59;5037722;28;20053;-65
2021/09/19 01:46:22;;;;;;;9.13;6.40;;;;;;;18.39;86.84;100583.41;5044235;28;20053;-64
2021/09/19 01:48:50;;;;;;;10.25;6.75;;;;;;;18.64;86.53;100576.31;5052613;28;20068;-63
2021/09/19 01:51:17;;;;;;;9.10;6.72;;;;;;;18.54;87.29;100586.13;5050616;28;20044;-63
2021/09/19 01:53:45;;;;;;;10.10;6.65;;;;;;;18.35;88.01;100586.13;5046961;28;20050;-63
2021/09/19 01:56:12;;;;;;;8.70;6.95;;;;;;;18.38;87.45;100581.78;5044339;28;20049;-62
2021/09/19 01:58:49;;;;;;;8.65;6.65;;;;;;;18.55;87.94;100586.94;5043521;28;20389;-63
2021/09/19 02:01:21;;;;;;;9.95;7.07;;;;;;;18.56;86.87;100585.75;5035747;28;20049;-62
2021/09/19 02:03:50;;;;;;;14.80;6.90;;;;;;;18.42;88.11;100579.91;5036246;28;20511;-66
2021/09/19 02:06:17;;;;;;;9.30;6.93;;;;;;;18.77;85.88;100589.75;5043161;28;20056;-64
2021/09/19 02:08:45;;;;;;;11.93;6.80;;;;;;;18.70;85.88;100578.47;5020542;28;20052;-63
2021/09/19 02:11:14;;;;;;;10.55;7.47;;;;;;;18.37;87.84;100575.41;5041699;28;20144;-62
2021/09/19 02:13:43;;;;;;;10.80;7.60;;;;;;;18.13;89.45;100580.50;5051496;28;20056;-63
2021/09/19 02:16:11;;;;;;;11.00;6.78;;;;;;;18.47;88.04;100572.03;5046768;28;20053;-63
2021/09/19 02:18:38;;;;;;;12.00;7.53;;;;;;;18.41;87.96;100572.72;5037351;28;20056;-62
2021/09/19 02:21:08;;;;;;;11.18;7.47;;;;;;;18.79;86.05;100567.06;5040016;28;20041;-62
2021/09/19 02:23:35;;;;;;;12.75;8.38;;;;;;;18.23;89.39;100574.31;5037703;28;20051;-63
2021/09/19 02:26:03;;;;;;;12.77;7.95;;;;;;;18.43;87.50;100575.94;5046262;28;20705;-63
2021/09/19 02:28:30;;;;;;;8.32;7.03;;;;;;;18.34;88.76;100562.19;5037509;28;20044;-62
2021/09/19 02:30:57;;;;;;;11.98;7.50;;;;;;;18.35;88.80;100568.56;5036159;28;20046;-62
2021/09/19 02:33:25;;;;;;;11.45;7.70;;;;;;;18.43;88.13;100556.44;5037240;28;20049;-63
2021/09/19 02:35:52;;;;;;;11.32;6.75;;;;;;;18.43;88.29;100562.00;5052252;28;20041;-63
2021/09/19 02:38:19;;;;;;;9.18;6.75;;;;;;;18.58;87.96;100561.09;5037403;28;20064;-62
2021/09/19 02:40:47;;;;;;;10.50;7.47;;;;;;;18.69;85.97;100554.50;5035309;28;20049;-63
2021/09/19 02:43:14;;;;;;;14.05;7.93;;;;;;;18.40;88.19;100551.53;5043938;28;20046;-63
2021/09/19 02:45:42;;;;;;;11.70;7.80;;;;;;;18.34;87.60;100564.19;5044751;28;20064;-63
2021/09/19 02:48:09;;;;;;;11.65;7.70;;;;;;;18.11;90.26;100555.78;5055251;28;20057;-62
2021/09/19 02:50:36;;;;;;;12.27;8.85;;;;;;;18.18;89.11;100550.34;5053083;28;20519;-62
2021/09/19 02:53:03;;;;;;;11.38;8.20;;;;;;;18.06;90.13;100544.91;5048301;28;20052;-64
2021/09/19 02:55:31;;;;;;;14.68;8.10;;;;;;;18.35;90.11;100543.47;5045240;28;20048;-64
2021/09/19 02:57:58;;;;;;;10.38;7.85;;;;;;;18.57;86.93;100546.31;5037876;28;20045;-63
2021/09/19 03:00:25;;;;;;;13.27;7.50;;;;;;;18.51;87.59;100538.63;5044943;28;20366;-64
2021/09/19 03:02:54;;;;;;;12.25;7.43;;;;;;;18.68;87.79;100538.97;5047289;28;20064;-64
2021/09/19 03:05:21;;;;;;;14.15;7.75;;;;;;;18.72;85.72;100534.25;5051055;28;20056;-64
2021/09/19 03:07:49;;;;;;;12.18;7.80;;;;;;;18.69;86.84;100537.75;5045235;28;20481;-63
2021/09/19 03:10:16;;;;;;;13.32;7.95;;;;;;;18.78;86.03;100531.94;5054421;28;20432;-63
2021/09/19 03:12:43;;;;;;;12.40;8.32;;;;;;;18.56;87.14;100532.75;5042562;28;20061;-63
2021/09/19 03:15:11;;;;;;;13.13;7.68;;;;;;;18.58;86.38;100542.38;5035068;28;20057;-63
2021/09/19 03:17:39;;;;;;;15.05;8.23;;;;;;;18.51;87.54;100528.28;5037380;28;20127;-63
2021/09/19 03:20:08;;;;;;;12.27;8.38;;;;;;;18.65;86.01;100534.13;5054504;28;20496;-64
2021/09/19 03:22:36;;;;;;;15.67;9.93;;;;;;;18.14;88.92;100532.72;5042610;28;20055;-63
2021/09/19 03:25:05;;;;;;;12.90;8.32;;;;;;;17.93;91.54;100535.91;5034384;28;20292;-64
2021/09/19 03:27:32;;;;;;;15.02;8.73;;;;;;;18.18;90.96;100533.59;5032025;28;20065;-63
2021/09/19 03:30:01;;;;;;;13.27;8.52;;;;;;;18.21;89.44;100534.84;5033396;28;20068;-63
2021/09/19 03:32:28;;;;;;;10.50;8.73;;;;;;;18.11;90.40;100532.66;5033997;28;20528;-63
2021/09/19 03:34:55;;;;;;;13.52;9.18;;;;;;;18.07;90.26;100531.78;5033480;28;20045;-64
2021/09/19 03:37:22;;;;;;;12.95;8.32;;;;;;;18.28;89.40;100529.41;5032740;28;20064;-64
2021/09/19 03:39:50;;;;;;;13.35;9.43;;;;;;;18.22;89.32;100528.88;5033064;28;20064;-64
2021/09/19 03:42:17;;;;;;;12.63;8.02;;;;;;;17.95;91.26;100525.19;5033996;28;20053;-64
2021/09/19 03:44:45;;;;;;;11.75;8.25;;;;;;;18.01;91.11;100528.47;5032498;28;20049;-65
2021/09/19 03:47:12;;;;;;;11.70;8.90;;;;;;;17.96;90.89;100524.00;5033572;28;20504;-64
2021/09/19 03:49:39;;;;;;;10.98;8.35;;;;;;;18.03;90.97;100525.34;5037948;28;20528;-64
2021/09/19 03:52:07;;;;;;;13.20;8.57;;;;;;;18.17;89.87;100531.97;5051356;28;20049;-62
2021/09/19 03:54:34;;;;;;;10.43;7.82;;;;;;;18.39;89.07;100536.00;5037031;28;20056;-62
2021/09/19 03:57:01;;;;;;;10.88;8.35;;;;;;;18.06;90.28;100532.97;5046963;28;20049;-64
2021/09/19 03:59:29;;;;;;;13.75;9.10;;;;;;;18.15;89.94;100530.75;5040139;28;20428;-63
2021/09/19 04:01:56;;;;;;;12.02;8.77;;;;;;;18.05;91.00;100526.56;5053519;28;20052;-63
2021/09/19 04:04:23;;;;;;;14.13;8.48;;;;;;;18.24;89.50;100534.09;5046395;28;20053;-62
2021/09/19 04:06:51;;;;;;;11.98;8.68;;;;;;;17.83;90.71;100533.72;5038943;28;20060;-62
2021/09/19 04:09:18;;;;;;;12.68;9.23;;;;;;;17.74;91.59;100547.03;5038492;28;20060;-63
2021/09/19 04:11:45;;;;;;;13.00;9.30;;;;;;;17.63;91.88;100532.06;5053119;28;20507;-62
2021/09/19 04:14:13;;;;;;;11.85;8.00;;;;;;;17.83;92.79;100539.28;5048751;28;20056;-63
2021/09/19 04:16:40;;;;;;;11.32;9.23;;;;;;;17.85;90.83;100534.13;5038199;28;20523;-62
2021/09/19 04:19:08;;;;;;;10.73;8.63;;;;;;;18.19;89.50;100535.22;5047207;28;20048;-62
2021/09/19 04:21:36;;;;;;;10.77;8.35;;;;;;;18.20;90.58;100530.44;5046892;28;20570;-62
2021/09/19 04:24:03;;;;;;;11.80;7.95;;;;;;;18.44;86.82;100532.94;5054632;28;20163;-63
2021/09/19 04:26:31;;;;;;;13.25;9.10;;;;;;;18.02;89.80;100540.44;5043762;28;20060;-63
2021/09/19 04:28:58;;;;;;;11.98;8.13;;;;;;;18.70;87.14;100544.16;5049364;28;20045;-62
2021/09/19 04:31:25;;;;;;;11.98;8.60;;;;;;;18.25;86.47;100538.50;5038589;28;20049;-62
2021/09/19 04:33:52;;;;;;;12.75;9.52;;;;;;;18.12;87.99;100539.84;5020637;28;20060;-62
2021/09/19 04:36:20;;;;;;;10.98;8.95;;;;;;;18.20;86.52;100553.53;5042221;28;20708;-62
2021/09/19 04:38:47;;;;;;;13.45;7.97;;;;;;;18.03;89.31;100551.22;5055109;28;20049;-63
2021/09/19 04:41:15;;;;;;;9.25;7.10;;;;;;;18.71;86.72;100552.16;5053696;28;20045;-63
2021/09/19 04:43:42;;;;;;;12.30;8.52;;;;;;;18.79;83.70;100558.69;5035680;28;20052;-63
2021/09/19 04:46:09;;;;;;;11.57;8.30;;;;;;;18.36;85.69;100553.47;5046187;28;20041;-63
2021/09/19 04:48:36;;;;;;;11.60;8.50;;;;;;;18.90;83.12;100560.47;5055492;28;20057;-63
2021/09/19 04:51:04;;;;;;;10.70;8.32;;;;;;;18.76;83.05;100560.22;5050552;28;20457;-62
2021/09/19 04:53:31;;;;;;;11.10;8.52;;;;;;;18.34;83.00;100556.59;5038155;28;20557;-63
2021/09/19 04:55:58;;;;;;;13.65;7.25;;;;;;;18.81;82.92;100556.31;5043279;28;20512;-64
2021/09/19 04:58:25;;;;;;;10.20;7.90;;;;;;;18.62;80.42;100553.59;5038486;28;20124;-63
2021/09/19 05:00:52;;;;;;;14.57;8.02;;;;;;;18.37;81.84;100567.03;5042561;28;20415;-62
2021/09/19 05:03:20;;;;;;;15.93;7.80;;;;;;;18.80;82.32;100568.66;5056846;28;20052;-63
2021/09/19 05:05:48;;;;;;;10.85;7.78;;;;;;;18.16;81.01;100571.38;5055126;28;20056;-63
2021/09/19 05:08:15;;;;;;;11.82;8.07;;;;;;;17.89;80.62;100571.25;5056952;28;20037;-63
2021/09/19 05:10:42;;;;;;;12.05;8.20;;;;;;;17.58;82.43;100565.78;5039689;28;20051;-62
2021/09/19 05:13:09;;;;;;;11.95;7.60;;;;;;;17.42;82.52;100564.97;5056432;28;20057;-62
2021/09/19 05:15:36;;;;;;;10.25;7.65;;;;;;;17.44;82.81;100565.41;5053377;28;20053;-63
2021/09/19 05:18:04;;;;;;;12.55;7.78;;;;;;;17.71;82.16;100560.88;5037049;28;20053;-64
2021/09/19 05:20:31;;;;;;;12.52;7.25;;;;;;;17.70;84.16;100559.25;5039802;28;20049;-64
2021/09/19 05:22:59;;;;;;;11.77;7.15;;;;;;;17.57;80.16;100566.16;5048192;28;20041;-64
2021/09/19 05:25:26;;;;;;;12.13;6.90;;;;;;;17.41;81.70;100563.38;5038965;28;20125;-63
2021/09/19 05:27:53;;;;;;;9.20;6.88;;;;;;;17.52;80.36;100563.66;5045393;28;20037;-63
2021/09/19 05:30:21;;;;;;;10.80;7.18;;;;;;;17.57;81.99;100566.94;5042445;28;20065;-63
2021/09/19 05:32:49;;;;;;;11.90;7.03;;;;;;;17.90;79.27;100553.31;5041079;28;20067;-63
2021/09/19 05:35:18;;;;;;;11.70;7.38;;;;;;;17.65;79.05;100565.94;5047034;28;20083;-63
2021/09/19 05:37:45;;;;;;;8.48;6.85;;;;;;;17.55;80.80;100574.06;5051799;28;20527;-63
2021/09/19 05:40:14;;;;;;;9.55;7.15;;;;;;;17.43;80.16;100571.34;5037218;28;20057;-63
2021/09/19 05:42:41;;;;;;;10.05;7.80;;;;;;;17.16;79.80;100570.31;5051156;28;20496;-63
2021/09/19 05:45:09;;;;;;;10.85;7.13;;;;;;;16.94;80.10;100568.19;5050819;28;20056;-63
2021/09/19 05:47:37;;;;;;;10.95;7.10;;;;;;;17.58;81.67;100578.88;5043877;28;20045;-63
2021/09/19 05:50:06;;;;;;;9.93;7.32;;;;;;;17.45;81.25;100578.16;5047559;28;20045;-63
2021/09/19 05:52:33;;;;;;;10.30;6.65;;;;;;;17.55;79.20;100586.00;5036024;28;20064;-64
2021/09/19 05:55:01;;;;;;;12.88;7.18;;;;;;;17.54;81.70;100581.59;5039635;28;20049;-64
2021/09/19 05:57:28;;;;;;;13.48;8.02;;;;;;;17.38;78.32;100583.56;5041634;28;20038;-64
2021/09/19 05:59:55;;;;;;;8.88;6.75;;;;;;;18.03;77.06;100583.88;5052840;28;20056;-63
2021/09/19 06:02:22;;;;;;;10.70;7.43;;;;;;;17.67;78.99;100588.66;5036870;28;20719;-64
2021/09/19 06:04:50;;;;;;;12.05;7.47;;;;;;;17.66;78.98;100589.03;5040525;28;20064;-64
2021/09/19 06:07:17;;;;;;;11.27;7.03;;;;;;;18.45;77.81;100593.09;5053995;28;20060;-64
2021/09/19 06:09:44;;;;;;;10.50;6.60;;;;;;;18.49;75.71;100599.56;5042382;28;20054;-66
2021/09/19 06:12:12;;;;;;;10.45;6.90;;;;;;;18.25;74.35;100602.66;5047228;28;20049;-65
2021/09/19 06:14:39;;;;;;;11.70;6.35;;;;;;;18.13;75.38;100609.19;5051107;28;20650;-65
2021/09/19 06:17:06;;;;;;;9.38;6.85;;;;;;;17.90;77.26;100600.69;5046693;28;20056;-64
2021/09/19 06:19:34;;;;;;;9.75;6.65;;;;;;;18.04;77.56;100604.97;5036683;28;20052;-65
2021/09/19 06:22:02;;;;;;;9.25;6.82;;;;;;;18.13;77.33;100594.44;5034865;28;20064;-66
2021/09/19 06:24:30;;;;;;;10.75;7.47;;;;;;;17.94;75.53;100596.03;5045340;28;20061;-64
2021/09/19 06:26:59;;;;;;;11.90;6.97;;;;;;;17.59;77.72;100605.59;5042639;28;20054;-63
2021/09/19 06:29:27;;;;;;;10.05;7.38;;;;;;;17.49;77.39;100606.94;5045128;28;20167;-64
2021/09/19 06:31:55;;;;;;;10.77;7.75;;;;;;;17.31;77.25;100602.88;5046715;28;20076;-63
2021/09/19 06:34:22;;;;;;;11.27;7.38;;;;;;;17.62;78.42;100605.66;5035959;28;20072;-64
2021/09/19 06:36:50;;;;;;;13.43;8.43;;;;;;;17.50;78.24;100602.19;5038945;28;20049;-64
2021/09/19 06:39:17;;;;;;;11.18;7.00;;;;;;;18.02;77.76;100605.34;5043615;28;20045;-65
2021/09/19 06:41:45;;;;;;;9.55;6.43;;;;;;;18.01;76.73;100600.94;5049405;28;20152;-64
2021/09/19 06:44:17;;;;;;;9.23;6.40;;;;;;;18.69;73.03;100601.94;5049867;28;20048;-63
2021/09/19 06:46:45;;;;;;;8.82;6.00;;;;;;;18.56;71.14;100599.69;5016811;28;20140;-62
2021/09/19 06:49:12;;;;;;;8.55;6.50;;;;;;;18.38;70.67;100599.31;5042282;28;20060;-62
2021/09/19 06:51:39;;;;;;;9.75;6.57;;;;;;;18.81;69.53;100604.56;5051218;28;20049;-63
2021/09/19 06:54:06;;;;;;;9.65;6.50;;;;;;;18.31;71.55;100601.97;5044106;28;20052;-64
2021/09/19 06:56:34;;;;;;;8.13;6.18;;;;;;;19.03;70.68;100605.75;5018718;28;20072;-64
2021/09/19 06:59:01;;;;;;;10.27;6.30;;;;;;;19.52;67.18;100611.38;5049249;28;20040;-63
2021/09/19 07:01:28;;;;;;;9.25;6.22;;;;;;;19.17;68.60;100613.56;5046183;28;20053;-62
2021/09/19 07:03:56;;;;;;;10.45;6.55;;;;;;;19.37;68.13;100610.31;5049315;28;20089;-63
2021/09/19 07:06:24;;;;;;;10.00;6.75;;;;;;;19.25;64.61;100618.88;5034391;28;20064;-64
2021/09/19 07:08:51;;;;;;;8.98;5.80;;;;;;;19.53;67.35;100622.16;5035468;28;20445;-62
2021/09/19 07:11:18;;;;;;;8.23;5.78;;;;;;;19.81;66.56;100617.00;5045859;28;20040;-64
2021/09/19 07:13:45;;;;;;;9.20;6.18;;;;;;;19.98;68.96;100626.81;5046220;28;20048;-64
2021/09/19 07:16:12;;;;;;;14.25;7.10;;;;;;;20.00;74.94;100627.22;5039765;28;20061;-64
2021/09/19 07:18:41;;;;;;;13.73;6.50;;;;;;;20.54;76.68;100626.78;5060330;28;20485;-65
2021/09/19 07:21:09;;;;;;;14.20;6.57;;;;;;;20.29;75.11;100623.69;5052771;28;20075;-64
2021/09/19 07:23:37;;;;;;;12.02;6.40;;;;;;;20.37;74.94;100639.34;5038212;28;20057;-63
2021/09/19 07:26:04;;;;;;;10.00;6.70;;;;;;;19.89;72.61;100640.28;5045313;28;20385;-63
2021/09/19 07:28:32;;;;;;;13.15;7.25;;;;;;;19.98;73.76;100643.56;5039812;28;20056;-62
2021/09/19 07:30:59;;;;;;;16.13;6.68;;;;;;;20.43;72.87;100640.63;5047860;28;20511;-64
2021/09/19 07:33:28;;;;;;;12.15;6.85;;;;;;;20.68;71.62;100635.28;5041497;28;20060;-63
2021/09/19 07:35:56;;;;;;;14.45;6.22;;;;;;;20.09;64.77;100645.34;5032255;28;20045;-63
2021/09/19 07:38:24;;;;;;;8.27;6.60;;;;;;;19.14;72.68;100651.44;5035652;28;20049;-64
2021/09/19 07:40:51;;;;;;;10.88;6.82;;;;;;;18.88;67.25;100656.94;5034065;28;20052;-63
2021/09/19 07:43:20;;;;;;;10.63;6.82;;;;;;;19.03;74.43;100664.38;5035831;28;20052;-64
2021/09/19 07:45:47;;;;;;;9.80;6.60;;;;;;;18.22;68.63;100670.31;5042709;28;20068;-63
2021/09/19 07:48:17;;;;;;;8.52;6.65;;;;;;;18.49;70.76;100664.53;5052613;28;20041;-65
2021/09/19 07:50:44;;;;;;;9.50;7.00;;;;;;;18.13;69.19;100672.47;5035114;28;20041;-65
2021/09/19 07:53:12;;;;;;;11.02;6.70;;;;;;;18.15;74.15;100672.94;5037082;28;20049;-65
2021/09/19 07:55:39;;;;;;;13.30;7.03;;;;;;;18.17;72.73;100667.78;5029773;28;20052;-64
2021/09/19 07:58:06;;;;;;;10.55;6.93;;;;;;;18.77;67.75;100681.03;5044007;28;20041;-64
2021/09/19 08:00:33;;;;;;;9.07;6.70;;;;;;;18.63;67.65;100678.78;5035447;28;20049;-62
2021/09/19 08:03:01;;;;;;;10.80;6.57;;;;;;;18.88;70.51;100685.63;5035195;28;20042;-63
2021/09/19 08:05:29;;;;;;;14.23;7.15;;;;;;;18.76;68.75;100682.19;5037408;28;20061;-63
2021/09/19 08:07:56;;;;;;;10.10;6.40;;;;;;;18.94;69.13;100700.09;5046496;28;20057;-63
2021/09/19 08:10:23;;;;;;;11.65;6.82;;;;;;;18.94;68.90;100691.72;5050389;28;20045;-63
2021/09/19 08:12:51;;;;;;;10.65;7.40;;;;;;;19.02;68.01;100690.69;5038042;28;20050;-62
2021/09/19 08:15:20;;;;;;;10.48;7.53;;;;;;;18.71;67.00;100700.03;5046462;28;20463;-62
2021/09/19 08:17:47;;;;;;;10.98;6.22;;;;;;;18.82;68.48;100689.09;5032204;28;20068;-62
2021/09/19 08:20:16;;;;;;;9.65;6.82;;;;;;;18.93;69.01;100693.69;5032536;28;20084;-62
2021/09/19 08:22:43;;;;;;;11.77;7.72;;;;;;;18.71;69.43;100694.47;5039991;28;20536;-62
2021/09/19 08:25:11;;;;;;;11.60;7.38;;;;;;;18.53;71.44;100689.72;5035257;28;20046;-63
2021/09/19 08:27:40;;;;;;;10.07;7.55;;;;;;;18.52;69.95;100694.47;5015991;28;20060;-62
2021/09/19 08:30:10;;;;;;;12.52;7.55;;;;;;;18.68;70.84;100702.75;5033207;28;20511;-62
2021/09/19 08:32:40;;;;;;;13.50;8.18;;;;;;;18.82;69.09;100714.22;5033834;28;20623;-63
2021/09/19 08:35:09;;;;;;;11.75;7.78;;;;;;;18.77;69.37;100715.34;5035988;28;20049;-63
2021/09/19 08:37:36;;;;;;;14.43;9.13;;;;;;;18.47;70.59;100713.47;5036286;28;20056;-63
2021/09/19 08:40:06;;;;;;;11.95;8.48;;;;;;;18.60;70.69;100718.53;5037982;28;20061;-63
2021/09/19 08:42:36;;;;;;;11.05;8.07;;;;;;;18.66;70.63;100714.31;5046865;28;20106;-65
2021/09/19 08:45:05;;;;;;;11.15;7.90;;;;;;;18.72;69.40;100717.59;5047694;28;20449;-62
2021/09/19 08:47:35;;;;;;;9.82;7.50;;;;;;;18.82;67.92;100719.81;5053990;28;20049;-61
2021/09/19 08:50:08;;;;;;;10.70;7.63;;;;;;;18.78;67.75;100724.50;5051065;28;20048;-63
2021/09/19 08:52:36;;;;;;;10.43;7.97;;;;;;;18.75;66.50;100736.41;5067919;28;20049;-64
2021/09/19 08:55:06;;;;;;;11.07;7.60;;;;;;;18.72;68.24;100746.34;5054625;28;20132;-63
2021/09/19 08:57:33;;;;;;;11.07;8.40;;;;;;;18.42;67.85;100736.91;5060052;28;20053;-62
2021/09/19 09:00:07;;;;;;;11.57;7.97;;;;;;;18.10;69.70;100735.34;5051728;28;20045;-66
2021/09/19 09:02:55;;;;;;;14.23;8.40;;;;;;;18.09;69.76;100738.50;5027988;28;20144;-63
2021/09/19 09:05:25;;;;;;;13.23;8.13;;;;;;;18.12;69.88;100743.34;5058879;28;20064;-64
2021/09/19 09:07:55;;;;;;;11.55;7.45;;;;;;;18.19;71.64;100749.06;5048095;28;20577;-63
2021/09/19 09:10:52;;;;;;;11.13;7.45;;;;;;;18.25;69.02;100745.66;5042580;28;20048;-62
2021/09/19 09:13:22;;;;;;;11.60;7.85;;;;;;;18.50;70.83;100749.00;5052466;28;20642;-64
2021/09/19 09:16:01;;;;;;;11.18;7.72;;;;;;;18.29;69.52;100751.31;5040283;28;20057;-63
2021/09/19 09:18:35;;;;;;;10.60;7.53;;;;;;;18.29;69.53;100757.69;5043553;28;20046;-63
2021/09/19 09:21:08;;;;;;;10.82;7.95;;;;;;;18.63;68.90;100756.06;5044405;28;20060;-63
2021/09/19 09:23:41;;;;;;;12.73;8.02;;;;;;;19.13;66.99;100764.28;5043161;28;20207;-63
2021/09/19 09:26:22;;;;;;;11.40;7.50;;;;;;;18.89;67.65;100765.41;5043075;28;20080;-63
2021/09/19 09:29:07;;;;;;;11.50;7.60;;;;;;;18.88;67.88;100766.56;5039127;28;20041;-62
2021/09/19 09:31:38;;;;;;;10.25;7.07;;;;;;;19.29;67.69;100766.97;5053139;28;20508;-63
2021/09/19 09:34:13;;;;;;;9.52;6.82;;;;;;;18.91;67.99;100753.88;5048506;28;20044;-64
2021/09/19 09:36:50;;;;;;;10.07;7.13;;;;;;;19.14;67.94;100757.53;5038207;28;20064;-63
2021/09/19 09:39:37;;;;;;;8.95;7.15;;;;;;;19.17;67.53;100756.78;5043907;28;20064;-63
2021/09/19 09:42:19;;;;;;;12.20;6.95;;;;;;;18.30;70.19;100767.69;5037120;28;20049;-63
2021/09/19 09:44:50;;;;;;;11.70;7.38;;;;;;;18.44;69.54;100759.66;5040431;28;20086;-63
2021/09/19 09:47:19;;;;;;;10.25;6.88;;;;;;;18.94;67.92;100769.88;5048459;28;20053;-64
2021/09/19 09:50:00;;;;;;;9.35;6.18;;;;;;;19.23;67.10;100769.25;5051223;28;20044;-64
2021/09/19 09:52:33;;;;;;;9.18;6.45;;;;;;;18.64;68.35;100771.63;5041473;28;20052;-64
2021/09/19 09:55:05;;;;;;;10.70;6.60;;;;;;;18.74;68.65;100774.66;5048102;28;20066;-63
2021/09/19 09:57:36;;;;;;;8.85;6.47;;;;;;;18.82;67.84;100773.66;5042307;28;20053;-65
2021/09/19 10:00:08;;;;;;;11.77;6.10;;;;;;;19.32;66.79;100767.06;5042269;28;20049;-66
2021/09/19 10:02:40;;;;;;;9.88;6.80;;;;;;;18.73;67.83;100772.22;5035512;28;20049;-63
2021/09/19 10:05:11;;;;;;;9.07;6.18;;;;;;;19.11;68.23;100774.22;5034426;28;20499;-65
2021/09/19 10:07:39;;;;;;;8.48;6.50;;;;;;;19.09;67.46;100777.34;5049426;28;20492;-64
2021/09/19 10:10:10;;;;;;;14.17;8.27;;;;;;;19.11;67.62;100783.38;5045339;28;20045;-65
2021/09/19 10:12:37;;;;;;;44.95;21.48;;;;;;;19.40;67.90;100773.59;5042214;28;20048;-64
2021/09/19 10:15:07;;;;;;;57.17;30.48;;;;;;;20.02;71.03;100781.47;5045586;28;20049;-66
2021/09/19 10:17:34;;;;;;;13.65;9.43;;;;;;;19.45;64.57;100776.91;5058912;28;20059;-65
2021/09/19 10:20:14;;;;;;;16.23;10.88;;;;;;;19.14;67.87;100779.88;5048250;28;20053;-64
2021/09/19 10:23:09;;;;;;;10.75;7.47;;;;;;;19.19;67.11;100784.34;5028808;28;20051;-66
2021/09/19 10:25:48;;;;;;;10.02;7.15;;;;;;;19.68;65.94;100785.28;5033847;28;20049;-65
2021/09/19 10:28:22;;;;;;;11.85;7.75;;;;;;;19.45;65.73;100773.28;5044553;28;20507;-65
2021/09/19 10:31:28;;;;;;;10.32;7.05;;;;;;;19.17;66.81;100779.13;5040547;28;20051;-64
2021/09/19 10:34:18;;;;;;;10.68;7.50;;;;;;;19.37;66.97;100780.72;5033708;28;20050;-65
2021/09/19 10:36:49;;;;;;;11.63;6.88;;;;;;;19.73;65.93;100777.41;5039848;28;20511;-65
2021/09/19 10:39:36;;;;;;;13.50;7.95;;;;;;;19.78;65.14;100774.28;5034736;28;20045;-64
2021/09/19 10:42:15;;;;;;;11.20;7.47;;;;;;;19.88;64.63;100782.03;5042086;28;20061;-64
2021/09/19 10:44:45;;;;;;;13.27;7.53;;;;;;;19.31;66.12;100776.63;5050687;28;20057;-61
2021/09/19 10:47:25;;;;;;;11.07;7.53;;;;;;;19.52;65.37;100781.81;5044580;28;20753;-64
2021/09/19 10:50:12;;;;;;;9.88;6.90;;;;;;;19.44;64.61;100786.44;5043322;28;20152;-63
2021/09/19 10:52:44;;;;;;;16.13;7.43;;;;;;;19.20;67.35;100785.94;5053979;28;20053;-65
2021/09/19 10:55:26;;;;;;;11.65;7.47;;;;;;;19.37;66.41;100783.50;5053539;28;20053;-64
2021/09/19 10:57:57;;;;;;;12.82;7.65;;;;;;;19.67;65.39;100790.06;5053269;28;20071;-62
2021/09/19 11:00:26;;;;;;;12.55;8.20;;;;;;;19.48;65.02;100803.28;5050747;28;20049;-63
2021/09/19 11:03:38;;;;;;;12.95;7.85;;;;;;;19.67;65.87;100786.44;5053576;28;20056;-62
2021/09/19 11:06:23;;;;;;;13.50;8.25;;;;;;;20.08;63.08;100783.56;5037317;28;20052;-63
2021/09/19 11:08:50;;;;;;;12.02;8.15;;;;;;;19.77;63.00;100775.47;5033659;28;20056;-63
2021/09/19 11:11:20;;;;;;;11.38;7.85;;;;;;;20.22;62.75;100785.81;5039777;28;20048;-63
2021/09/19 11:13:55;;;;;;;12.80;7.85;;;;;;;19.95;63.87;100779.38;5060744;28;20063;-63
2021/09/19 11:16:27;;;;;;;10.05;7.45;;;;;;;20.11;63.74;100777.22;5074236;28;20055;-64
2021/09/19 11:19:03;;;;;;;10.57;7.60;;;;;;;20.21;63.30;100781.38;5067098;28;20049;-63
2021/09/19 11:21:37;;;;;;;10.15;6.82;;;;;;;20.64;62.56;100772.41;5051726;28;20045;-63
2021/09/19 11:24:06;;;;;;;12.00;7.22;;;;;;;20.13;63.29;100788.84;5049789;28;20053;-63
2021/09/19 11:26:50;;;;;;;10.50;7.40;;;;;;;19.95;63.12;100798.13;5033132;28;20056;-64
2021/09/19 11:29:24;;;;;;;9.95;7.60;;;;;;;20.28;61.55;100792.69;5035029;28;20049;-64